createdAt,value
2023-02-28T00:01:20.239Z,22.10
2023-02-28T00:04:21.863Z,25.23
2023-02-28T00:07:23.509Z,21.83
2023-02-28T00:10:27.488Z,23.07
2023-02-28T00:13:29.072Z,21.93
2023-02-28T00:16:30.733Z,20.70
2023-02-28T00:19:32.383Z,21.70
2023-02-28T00:22:34.095Z,24.93
2023-02-28T00:25:35.699Z,22.27
2023-02-28T00:28:37.354Z,25.57
2023-02-28T00:31:39.007Z,25.77
2023-02-28T00:34:40.732Z,27.00
2023-02-28T00:37:43.862Z,24.53
2023-02-28T00:40:45.513Z,26.53
2023-02-28T00:43:47.294Z,31.33
2023-02-28T00:46:49.089Z,28.70
2023-02-28T00:49:50.760Z,30.40
2023-02-28T00:52:52.326Z,27.57
2023-02-28T00:55:55.432Z,32.53
2023-02-28T00:58:57.023Z,31.67
2023-02-28T01:01:58.911Z,32.67
2023-02-28T01:05:00.680Z,29.77
2023-02-28T01:08:05.283Z,32.70
2023-02-28T01:11:11.838Z,32.03
2023-02-28T01:14:16.956Z,32.50
2023-02-28T01:17:20.337Z,32.60
2023-02-28T01:20:22.080Z,34.97
2023-02-28T01:23:24.645Z,33.83
2023-02-28T01:26:26.327Z,35.23
2023-02-28T01:29:28.016Z,32.43
2023-02-28T01:32:29.705Z,30.83
2023-02-28T01:35:33.554Z,34.33
2023-02-28T01:38:35.328Z,31.50
2023-02-28T01:41:37.053Z,34.70
2023-02-28T01:44:57.570Z,36.50
2023-02-28T01:48:03.031Z,35.73
2023-02-28T01:51:06.826Z,37.90
2023-02-28T01:54:14.745Z,34.87
2023-02-28T01:57:17.722Z,37.03
2023-02-28T02:00:20.743Z,36.83
2023-02-28T02:03:22.494Z,39.10
2023-02-28T02:06:25.836Z,44.13
2023-02-28T02:09:27.467Z,38.43
2023-02-28T02:12:37.673Z,41.67
2023-02-28T02:15:45.509Z,40.37
2023-02-28T02:18:55.515Z,38.10
2023-02-28T02:22:03.312Z,38.27
2023-02-28T02:25:23.666Z,40.37
2023-02-28T02:28:34.261Z,40.80
2023-02-28T02:31:53.774Z,39.63
2023-02-28T02:35:11.025Z,40.33
2023-02-28T02:38:18.757Z,40.47
2023-02-28T02:41:20.473Z,36.37
2023-02-28T02:44:24.263Z,40.73
2023-02-28T02:47:28.211Z,35.93
2023-02-28T02:50:35.611Z,41.10
2023-02-28T02:53:39.463Z,37.07
2023-02-28T02:56:43.848Z,41.27
2023-02-28T02:59:45.771Z,42.03
2023-02-28T03:02:48.614Z,40.87
2023-02-28T03:05:50.910Z,37.27
2023-02-28T03:08:52.546Z,37.80
2023-02-28T03:11:55.555Z,35.20
2023-02-28T03:15:00.307Z,36.17
2023-02-28T03:18:04.623Z,35.93
2023-02-28T03:21:06.224Z,39.63
2023-02-28T03:24:11.701Z,38.70
2023-02-28T03:27:19.587Z,36.83
2023-02-28T03:30:32.169Z,44.77
2023-02-28T03:33:36.926Z,42.67
2023-02-28T03:36:44.937Z,39.07
2023-02-28T03:39:48.522Z,42.17
2023-02-28T03:42:52.758Z,42.13
2023-02-28T03:45:55.815Z,40.10
2023-02-28T03:49:01.838Z,34.50
2023-02-28T03:52:04.714Z,37.80
2023-02-28T03:55:10.298Z,37.37
2023-02-28T03:58:11.897Z,39.30
2023-02-28T04:01:15.396Z,35.00
2023-02-28T04:04:17.719Z,44.43
2023-02-28T04:07:19.355Z,38.87
2023-02-28T04:10:21.122Z,37.73
2023-02-28T04:13:22.725Z,37.40
2023-02-28T04:16:34.539Z,38.63
2023-02-28T04:19:37.289Z,43.63
2023-02-28T04:22:38.847Z,44.00
2023-02-28T04:25:41.422Z,40.80
2023-02-28T04:28:43.077Z,44.10
2023-02-28T04:31:44.752Z,43.43
2023-02-28T04:34:46.369Z,38.27
2023-02-28T04:37:47.954Z,47.00
2023-02-28T04:40:49.524Z,41.20
2023-02-28T04:43:54.250Z,42.77
2023-02-28T04:46:55.905Z,41.07
2023-02-28T04:49:57.750Z,42.33
2023-02-28T04:52:59.365Z,35.87
2023-02-28T04:56:01.760Z,37.37
2023-02-28T04:59:03.506Z,35.60
2023-02-28T05:02:08.012Z,35.40
2023-02-28T05:05:09.903Z,33.73
2023-02-28T05:08:12.769Z,38.27
2023-02-28T05:11:19.205Z,40.00
2023-02-28T05:14:20.845Z,34.50
2023-02-28T05:17:22.570Z,37.43
2023-02-28T05:20:24.254Z,37.53
2023-02-28T05:23:25.887Z,41.73
2023-02-28T05:26:28.639Z,38.40
2023-02-28T05:29:30.857Z,42.70
2023-02-28T05:32:32.505Z,41.47
2023-02-28T05:35:34.147Z,46.27
2023-02-28T05:38:37.820Z,42.03
2023-02-28T05:41:43.610Z,47.83
2023-02-28T05:44:45.270Z,46.10
2023-02-28T05:47:46.862Z,42.70
2023-02-28T05:50:48.502Z,39.67
2023-02-28T05:53:50.482Z,41.63
2023-02-28T05:56:52.102Z,40.47
2023-02-28T05:59:53.869Z,40.27
2023-02-28T06:02:57.329Z,41.77
2023-02-28T06:05:58.987Z,37.40
2023-02-28T06:09:01.657Z,48.60
2023-02-28T06:12:04.830Z,48.73
2023-02-28T06:15:06.670Z,44.60
2023-02-28T06:18:08.541Z,40.23
2023-02-28T06:21:10.298Z,50.43
2023-02-28T06:24:11.987Z,48.17
2023-02-28T06:27:16.651Z,49.80
2023-02-28T06:30:18.744Z,62.10
2023-02-28T06:33:20.497Z,50.10
2023-02-28T06:36:22.107Z,49.20
2023-02-28T06:39:23.737Z,50.77
2023-02-28T06:42:29.669Z,46.37
2023-02-28T06:45:31.386Z,55.30
2023-02-28T06:48:35.617Z,53.97
2023-02-28T06:51:38.708Z,49.30
2023-02-28T06:54:40.380Z,43.20
2023-02-28T06:57:41.976Z,48.70
2023-02-28T07:00:44.828Z,44.23
2023-02-28T07:03:46.891Z,46.20
2023-02-28T07:06:48.527Z,47.20
2023-02-28T07:09:50.257Z,45.13
2023-02-28T07:12:52.533Z,44.73
2023-02-28T07:16:04.879Z,59.97
2023-02-28T07:19:06.591Z,58.80
2023-02-28T07:22:08.562Z,47.33
2023-02-28T07:25:10.653Z,71.57
2023-02-28T07:28:12.893Z,50.90
2023-02-28T07:31:15.165Z,68.10
2023-02-28T07:34:17.043Z,49.57
2023-02-28T07:37:18.761Z,58.60
2023-02-28T07:40:20.492Z,66.93
2023-02-28T07:43:22.153Z,64.03
2023-02-28T07:46:23.944Z,66.70
2023-02-28T07:49:25.590Z,60.77
2023-02-28T07:52:27.548Z,57.23
2023-02-28T07:55:29.151Z,64.73
2023-02-28T07:58:31.417Z,74.67
2023-02-28T08:01:33.537Z,59.57
2023-02-28T08:04:35.342Z,54.47
2023-02-28T08:07:37.100Z,50.27
2023-02-28T08:10:38.883Z,48.17
2023-02-28T08:13:40.551Z,48.43
2023-02-28T08:16:43.971Z,46.03
2023-02-28T08:19:48.627Z,54.20
2023-02-28T08:22:50.343Z,56.87
2023-02-28T08:25:56.193Z,47.27
2023-02-28T08:28:59.319Z,59.27
2023-02-28T08:32:02.171Z,65.10
2023-02-28T08:35:04.791Z,76.93
2023-02-28T08:38:06.475Z,81.63
2023-02-28T08:41:09.882Z,68.33
2023-02-28T08:44:11.813Z,118.47
2023-02-28T08:47:13.450Z,88.77
2023-02-28T08:50:16.018Z,83.97
2023-02-28T08:53:17.717Z,73.13
2023-02-28T08:56:19.675Z,53.63
2023-02-28T08:59:21.293Z,66.77
2023-02-28T09:02:23.111Z,51.03
2023-02-28T09:05:24.882Z,260.90
2023-02-28T09:08:27.099Z,70.77
2023-02-28T09:11:29.252Z,76.53
2023-02-28T09:14:31.064Z,114.83
2023-02-28T09:17:32.822Z,72.73
2023-02-28T09:20:34.684Z,49.07
2023-02-28T09:23:39.152Z,47.90
2023-02-28T09:26:43.461Z,62.37
2023-02-28T09:29:57.370Z,51.57
2023-02-28T09:32:59.159Z,56.40
2023-02-28T09:36:01.978Z,61.63
2023-02-28T09:39:04.205Z,59.37
2023-02-28T09:42:06.110Z,66.70
2023-02-28T09:45:19.993Z,66.17
2023-02-28T09:48:25.900Z,85.77
2023-02-28T09:51:46.253Z,112.00
2023-02-28T09:54:48.300Z,66.37
2023-02-28T09:57:51.951Z,74.23
2023-02-28T10:01:18.913Z,65.80
2023-02-28T10:04:39.245Z,59.53
2023-02-28T10:07:56.185Z,45.67
2023-02-28T10:11:08.183Z,35.20
2023-02-28T10:14:23.457Z,42.70
2023-02-28T10:17:27.223Z,37.30
2023-02-28T10:20:31.879Z,66.00
2023-02-28T10:23:36.636Z,46.93
2023-02-28T10:26:38.373Z,45.40
2023-02-28T10:29:41.360Z,48.87
2023-02-28T10:32:47.744Z,36.90
2023-02-28T10:35:49.860Z,40.97
2023-02-28T10:38:51.618Z,40.73
2023-02-28T10:41:53.928Z,40.93
2023-02-28T10:45:07.184Z,59.90
2023-02-28T10:48:14.652Z,41.47
2023-02-28T10:51:17.812Z,34.13
2023-02-28T10:54:21.753Z,37.10
2023-02-28T10:57:27.276Z,36.13
2023-02-28T11:00:33.152Z,33.33
2023-02-28T11:03:36.149Z,43.73
2023-02-28T11:06:37.779Z,41.23
2023-02-28T11:09:40.773Z,37.67
2023-02-28T11:12:52.259Z,36.17
2023-02-28T11:15:56.280Z,35.73
2023-02-28T11:18:58.541Z,34.67
2023-02-28T11:22:05.119Z,31.37
2023-02-28T11:25:24.047Z,76.17
2023-02-28T11:28:36.168Z,54.33
2023-02-28T11:31:37.901Z,47.37
2023-02-28T11:34:39.708Z,54.40
2023-02-28T11:37:41.460Z,84.73
2023-02-28T11:40:43.106Z,78.00
2023-02-28T11:43:59.827Z,73.30
2023-02-28T11:47:14.624Z,76.83
2023-02-28T11:50:34.902Z,60.80
2023-02-28T11:53:52.000Z,63.77
2023-02-28T11:57:13.080Z,47.30
2023-02-28T12:00:33.643Z,28.80
2023-02-28T12:03:50.648Z,46.10
2023-02-28T12:07:06.257Z,40.77
2023-02-28T12:10:17.333Z,22.80
2023-02-28T12:13:38.139Z,25.47
2023-02-28T12:16:46.899Z,27.07
2023-02-28T12:19:54.312Z,23.27
2023-02-28T12:23:04.927Z,19.17
2023-02-28T12:26:15.278Z,20.40
2023-02-28T12:29:25.208Z,19.43
2023-02-28T12:32:31.179Z,18.67
2023-02-28T12:35:38.530Z,62.87
2023-02-28T12:39:03.426Z,24.97
2023-02-28T12:42:08.847Z,31.10
2023-02-28T12:45:19.655Z,31.83
2023-02-28T12:48:25.297Z,83.17
2023-02-28T12:51:28.059Z,139.20
2023-02-28T12:54:45.295Z,80.43
2023-02-28T12:57:46.826Z,35.03
2023-02-28T13:01:13.872Z,31.97
2023-02-28T13:04:27.612Z,40.03
2023-02-28T13:07:44.751Z,36.77
2023-02-28T13:10:55.654Z,50.07
2023-02-28T13:14:01.190Z,38.87
2023-02-28T13:17:18.058Z,54.20
2023-02-28T13:20:27.197Z,27.93
2023-02-28T13:23:58.141Z,44.53
2023-02-28T13:27:02.875Z,56.70
2023-02-28T13:30:22.968Z,145.57
2023-02-28T13:33:26.829Z,39.90
2023-02-28T13:36:32.836Z,32.43
2023-02-28T13:39:36.181Z,85.47
2023-02-28T13:42:47.747Z,77.77
2023-02-28T13:46:07.491Z,87.40
2023-02-28T13:49:24.424Z,96.03
2023-02-28T13:52:26.160Z,52.37
2023-02-28T13:55:33.992Z,41.53
2023-02-28T13:58:40.136Z,49.80
2023-02-28T14:01:53.758Z,71.63
2023-02-28T14:05:03.316Z,33.00
2023-02-28T14:08:06.874Z,51.13
2023-02-28T14:11:24.377Z,42.60
2023-02-28T14:14:38.268Z,37.73
2023-02-28T14:17:39.861Z,36.57
2023-02-28T14:20:41.869Z,39.17
2023-02-28T14:24:16.867Z,40.63
2023-02-28T14:27:37.072Z,44.53
2023-02-28T14:30:57.382Z,51.13
2023-02-28T14:34:05.159Z,59.33
2023-02-28T14:37:08.946Z,63.13
2023-02-28T14:40:16.940Z,54.07
2023-02-28T14:43:26.520Z,67.00
2023-02-28T14:46:31.694Z,69.57
2023-02-28T14:49:35.054Z,39.93
2023-02-28T14:52:36.726Z,75.27
2023-02-28T14:55:38.448Z,50.13
2023-02-28T14:58:40.053Z,29.70
2023-02-28T15:01:41.836Z,47.73
2023-02-28T15:04:43.630Z,42.17
2023-02-28T15:07:46.174Z,32.13
2023-02-28T15:10:53.075Z,41.43
2023-02-28T15:13:57.473Z,40.57
2023-02-28T15:17:03.174Z,26.97
2023-02-28T15:20:05.375Z,19.00
2023-02-28T15:23:07.210Z,23.33
2023-02-28T15:26:12.052Z,31.43
2023-02-28T15:29:16.165Z,26.30
2023-02-28T15:32:29.550Z,58.47
2023-02-28T15:35:33.169Z,36.37
2023-02-28T15:38:36.324Z,51.90
2023-02-28T15:41:41.875Z,15.27
2023-02-28T15:44:43.506Z,22.93
2023-02-28T15:47:46.871Z,21.00
2023-02-28T15:50:52.653Z,18.17
2023-02-28T15:53:58.734Z,18.97
2023-02-28T15:57:04.271Z,27.17
2023-02-28T16:00:06.791Z,37.83
2023-02-28T16:03:35.606Z,35.77
2023-02-28T16:06:45.284Z,32.07
2023-02-28T16:09:48.174Z,33.07
2023-02-28T16:12:49.770Z,19.63
2023-02-28T16:15:54.079Z,24.67
2023-02-28T16:18:56.512Z,19.20
2023-02-28T16:21:58.368Z,19.50
2023-02-28T16:24:59.991Z,22.80
2023-02-28T16:28:01.838Z,24.83
2023-02-28T16:31:04.713Z,23.63
2023-02-28T16:34:06.757Z,33.60
2023-02-28T16:37:15.561Z,18.10
2023-02-28T16:40:19.019Z,19.77
2023-02-28T16:43:22.244Z,16.13
2023-02-28T16:46:24.143Z,25.13
2023-02-28T16:49:26.056Z,67.33
2023-02-28T16:52:28.741Z,30.43
2023-02-28T16:55:30.389Z,25.70
2023-02-28T16:58:32.096Z,26.43
2023-02-28T17:01:34.676Z,28.30
2023-02-28T17:04:36.460Z,44.70
2023-02-28T17:07:41.024Z,31.37
2023-02-28T17:10:42.738Z,28.63
2023-02-28T17:13:44.772Z,23.20
2023-02-28T17:16:46.540Z,17.97
2023-02-28T17:19:48.870Z,28.50
2023-02-28T17:22:50.817Z,22.73
2023-02-28T17:25:57.965Z,26.20
2023-02-28T17:29:00.028Z,40.80
2023-02-28T17:32:12.262Z,27.13
2023-02-28T17:35:18.832Z,23.23
2023-02-28T17:38:20.766Z,21.33
2023-02-28T17:41:22.793Z,24.20
2023-02-28T17:44:25.088Z,33.03
2023-02-28T17:47:26.708Z,38.07
2023-02-28T17:50:28.324Z,130.87
2023-02-28T17:53:29.949Z,54.23
2023-02-28T17:56:32.236Z,40.87
2023-02-28T17:59:37.124Z,46.83
2023-02-28T18:02:38.843Z,46.77
2023-02-28T18:05:41.593Z,43.37
2023-02-28T18:08:43.477Z,28.90
2023-02-28T18:11:50.128Z,39.67
2023-02-28T18:14:51.912Z,37.00
2023-02-28T18:17:53.563Z,36.70
2023-02-28T18:20:58.150Z,41.30
2023-02-28T18:23:59.799Z,46.37
2023-02-28T18:27:01.510Z,32.83
2023-02-28T18:30:05.136Z,48.57
2023-02-28T18:33:06.897Z,38.50
2023-02-28T18:36:08.607Z,35.90
2023-02-28T18:39:12.106Z,33.00
2023-02-28T18:42:13.892Z,31.77
2023-02-28T18:45:15.593Z,53.33
2023-02-28T18:48:19.603Z,41.13
2023-02-28T18:51:23.327Z,35.93
2023-02-28T18:54:25.097Z,47.37
2023-02-28T18:57:26.707Z,33.50
2023-02-28T19:00:28.431Z,28.30
2023-02-28T19:03:30.089Z,78.97
2023-02-28T19:06:32.858Z,30.53
2023-02-28T19:09:34.605Z,28.87
2023-02-28T19:12:36.842Z,43.03
2023-02-28T19:15:38.447Z,35.53
2023-02-28T19:18:40.661Z,26.03
2023-02-28T19:21:42.326Z,24.70
2023-02-28T19:24:43.976Z,21.07
2023-02-28T19:27:45.592Z,23.03
2023-02-28T19:30:48.583Z,26.23
2023-02-28T19:33:52.816Z,27.53
2023-02-28T19:36:54.520Z,29.63
2023-02-28T19:39:57.054Z,29.13
2023-02-28T19:42:59.350Z,32.63
2023-02-28T19:46:02.505Z,32.63
2023-02-28T19:49:04.204Z,43.57
2023-02-28T19:52:06.352Z,45.30
2023-02-28T19:55:08.312Z,50.27
2023-02-28T19:58:10.853Z,47.57
2023-02-28T20:01:14.015Z,77.13
2023-02-28T20:04:15.703Z,57.97
2023-02-28T20:07:20.257Z,53.73
2023-02-28T20:10:21.976Z,92.83
2023-02-28T20:13:27.991Z,97.30
2023-02-28T20:16:31.334Z,68.37
2023-02-28T20:19:33.140Z,70.27
2023-02-28T20:22:38.256Z,69.23
2023-02-28T20:25:40.963Z,66.27
2023-02-28T20:28:43.382Z,112.53
2023-02-28T20:31:45.199Z,164.07
2023-02-28T20:34:46.861Z,118.00
2023-02-28T20:37:48.738Z,77.07
2023-02-28T20:40:54.231Z,65.20
2023-02-28T20:44:06.113Z,60.87
2023-02-28T20:47:07.799Z,35.37
2023-02-28T20:50:10.090Z,28.43
2023-02-28T20:53:11.737Z,35.73
2023-02-28T20:56:16.088Z,23.07
2023-02-28T20:59:17.715Z,33.20
2023-02-28T21:02:19.512Z,27.10
2023-02-28T21:05:21.251Z,21.73
2023-02-28T21:08:22.879Z,21.40
2023-02-28T21:11:26.062Z,21.37
2023-02-28T21:14:27.731Z,27.93
2023-02-28T21:17:29.424Z,20.30
2023-02-28T21:20:31.066Z,30.03
2023-02-28T21:23:33.190Z,18.70
2023-02-28T21:26:34.800Z,12.23
2023-02-28T21:29:36.449Z,12.00
2023-02-28T21:32:38.826Z,12.57
2023-02-28T21:35:40.456Z,15.97
2023-02-28T21:38:42.684Z,20.83
2023-02-28T21:41:44.522Z,17.20
2023-02-28T21:44:46.188Z,18.27
2023-02-28T21:47:47.860Z,17.07
2023-02-28T21:50:59.579Z,15.43
2023-02-28T21:54:01.577Z,46.00
2023-02-28T21:57:03.310Z,13.47
2023-02-28T22:00:06.353Z,11.00
2023-02-28T22:03:15.112Z,8.57
2023-02-28T22:06:18.913Z,11.53
2023-02-28T22:09:20.863Z,11.93
2023-02-28T22:12:22.426Z,11.67
2023-02-28T22:15:24.272Z,12.00
2023-02-28T22:18:25.887Z,11.70
2023-02-28T22:21:27.479Z,10.63
2023-02-28T22:24:29.245Z,10.13
2023-02-28T22:27:30.940Z,9.20
2023-02-28T22:30:32.654Z,11.70
2023-02-28T22:33:34.390Z,10.70
2023-02-28T22:36:36.231Z,8.60
2023-02-28T22:39:37.884Z,6.30
2023-02-28T22:42:39.514Z,9.37
2023-02-28T22:45:41.751Z,6.77
2023-02-28T22:48:43.344Z,7.37
2023-02-28T22:51:44.989Z,6.00
2023-02-28T22:54:49.349Z,6.10
2023-02-28T22:57:51.070Z,6.53
2023-02-28T23:00:54.892Z,9.33
2023-02-28T23:03:56.958Z,9.57
2023-02-28T23:06:58.677Z,9.67
2023-02-28T23:10:00.364Z,8.60
2023-02-28T23:13:01.979Z,8.13
2023-02-28T23:16:06.973Z,6.93
2023-02-28T23:19:10.198Z,5.93
2023-02-28T23:22:11.764Z,4.90
2023-02-28T23:25:13.843Z,5.27
2023-02-28T23:28:15.452Z,4.70
2023-02-28T23:31:17.160Z,7.43
2023-02-28T23:34:26.165Z,5.60
2023-02-28T23:37:27.854Z,6.87
2023-02-28T23:40:29.460Z,5.63
2023-02-28T23:43:31.122Z,5.50
2023-02-28T23:46:33.355Z,7.60
2023-02-28T23:49:35.146Z,6.57
2023-02-28T23:52:36.826Z,7.73
2023-02-28T23:55:38.482Z,6.33
2023-02-28T23:58:40.711Z,6.03
